This is the latest recevied weather packets stored in our database for station/object WD7CGF. If no packets are shown the sender has not sent any weather packets the latest 10 day(s).
| Time | Temp. | Humidity | Pressure | Rain* | Wind** | Luminosity | Snow |
|---|---|---|---|---|---|---|---|
| 1787420916 | 23.89° C | 66% | 1013.1 hPa | 0 mm | - | - | - |
| 1787420313 | 23.33° C | 67% | 1013.2 hPa | 0 mm | - | - | - |
| 1787419726 | 22.78° C | 68% | 1013.2 hPa | 0 mm | - | - | - |
| 1787419118 | 22.78° C | 67% | 1013.2 hPa | 0 mm | - | - | - |
| 1787418528 | 22.78° C | 67% | 1013.1 hPa | 0 mm | - | - | - |
| 1787417922 | 22.78° C | 68% | 1012.7 hPa | 0 mm | - | - | - |
| 1787417313 | 22.78° C | 69% | 1012.7 hPa | 0 mm | - | - | - |
| 1787416727 | 22.22° C | 70% | 1012.6 hPa | 0 mm | - | - | - |
| 1787416121 | 21.67° C | 75% | 1012.9 hPa | 0 mm | - | - | - |
| 1787415519 | 21.67° C | 75% | 1012.9 hPa | 0 mm | - | - | - |
| 1787414912 | 21.67° C | 75% | 1012.4 hPa | 0 mm | - | - | - |
| 1787414325 | 21.11° C | 75% | 1012.2 hPa | 0 mm | - | - | - |
| 1787413719 | 20.56° C | 79% | 1012.2 hPa | 0 mm | - | - | - |
| 1787413112 | 20° C | 84% | 1012.2 hPa | 0 mm | - | - | - |
| 1787412530 | 18.89° C | 85% | 1013.1 hPa | 0 mm | - | - | - |
| 1787411924 | 18.33° C | 85% | 1013.1 hPa | 0 mm | - | - | - |
| 1787411314 | 18.33° C | 85% | 1012 hPa | 0 mm | - | - | - |
| 1787410713 | 18.33° C | 84% | 1011.9 hPa | 0 mm | - | - | - |
| 1787410128 | 18.33° C | 84% | 1011.9 hPa | 0 mm | - | - | - |
| 1787409522 | 18.33° C | 83% | 1012.1 hPa | 0 mm | - | - | - |
| 1787408915 | 18.33° C | 81% | 1011.5 hPa | 0 mm | - | - | - |
| 1787408326 | 18.33° C | 81% | 1011.5 hPa | 0 mm | - | - | - |
| 1787407718 | 17.78° C | 80% | 1012.3 hPa | 0 mm | - | - | - |
| 1787407111 | 17.78° C | 82% | 1012.2 hPa | 0 mm | - | - | - |
| 1787406527 | 17.22° C | 83% | 1012.2 hPa | 0 mm | - | - | - |
* Rain latest hour (hover to see other rain measurements)
** Current wind speed in m/s (hover to see current wind gust speed)